createdAt,value
2019-05-02T00:01:32.219Z,944.3
2019-05-02T00:04:38.441Z,944.3
2019-05-02T00:07:44.577Z,944.3
2019-05-02T00:10:50.893Z,944.2
2019-05-02T00:13:57.128Z,944.2
2019-05-02T00:17:03.408Z,944.2
2019-05-02T00:20:09.608Z,944.2
2019-05-02T00:23:15.808Z,944.2
2019-05-02T00:26:26.444Z,944.2
2019-05-02T00:29:32.566Z,944.2
2019-05-02T00:32:38.910Z,944.3
2019-05-02T00:35:48.214Z,944.2
2019-05-02T00:38:54.336Z,944.2
2019-05-02T00:42:22.368Z,944.2
2019-05-02T00:45:29.679Z,944.2
2019-05-02T00:48:35.857Z,944.3
2019-05-02T00:51:41.972Z,944.2
2019-05-02T00:54:48.286Z,944.2
2019-05-02T00:57:57.566Z,944.2
2019-05-02T01:01:03.914Z,944.3
2019-05-02T01:04:10.007Z,944.3
2019-05-02T01:07:20.218Z,944.3
2019-05-02T01:10:32.035Z,944.4
2019-05-02T01:13:38.369Z,944.4
2019-05-02T01:16:44.634Z,944.3
2019-05-02T01:20:00.763Z,944.3
2019-05-02T01:23:07.009Z,944.4
2019-05-02T01:26:15.981Z,944.4
2019-05-02T01:29:32.085Z,944.4
2019-05-02T01:32:38.249Z,944.4
2019-05-02T01:35:44.575Z,944.4
2019-05-02T01:38:50.851Z,944.4
2019-05-02T01:42:05.384Z,944.4
2019-05-02T01:45:13.245Z,944.4
2019-05-02T01:48:19.422Z,944.4
2019-05-02T01:51:25.630Z,944.4
2019-05-02T01:54:31.793Z,944.4
2019-05-02T01:57:45.996Z,944.4
2019-05-02T02:00:54.981Z,944.4
2019-05-02T02:04:01.374Z,944.3
2019-05-02T02:07:07.710Z,944.4
2019-05-02T02:10:21.069Z,944.4
2019-05-02T02:13:31.125Z,944.3
2019-05-02T02:16:43.007Z,944.4
2019-05-02T02:19:49.228Z,944.3
2019-05-02T02:22:55.597Z,944.3
2019-05-02T02:26:01.799Z,944.4
2019-05-02T02:29:16.664Z,944.4
2019-05-02T02:32:29.637Z,944.4
2019-05-02T02:35:51.977Z,944.4
2019-05-02T02:38:58.448Z,944.4
2019-05-02T02:42:04.686Z,944.3
2019-05-02T02:45:20.723Z,944.4
2019-05-02T02:48:26.853Z,944.4
2019-05-02T02:51:46.570Z,944.4
2019-05-02T02:54:52.894Z,944.4
2019-05-02T02:58:06.570Z,944.4
2019-05-02T03:01:12.929Z,944.4
2019-05-02T03:04:34.829Z,944.4
2019-05-02T03:07:41.100Z,944.5
2019-05-02T03:10:47.820Z,944.5
2019-05-02T03:14:09.896Z,944.5
2019-05-02T03:17:29.257Z,944.5
2019-05-02T03:20:42.794Z,944.5
2019-05-02T03:23:48.989Z,944.5
2019-05-02T03:27:10.509Z,944.5
2019-05-02T03:30:37.980Z,944.6
2019-05-02T03:34:01.710Z,944.6
2019-05-02T03:37:14.652Z,944.6
2019-05-02T03:40:20.748Z,944.6
2019-05-02T03:43:29.266Z,944.7
2019-05-02T03:46:35.628Z,944.7
2019-05-02T03:49:53.004Z,944.7
2019-05-02T03:52:59.225Z,944.8
2019-05-02T03:56:14.757Z,944.8
2019-05-02T03:59:21.061Z,944.8
2019-05-02T04:02:27.339Z,944.9
2019-05-02T04:05:42.252Z,944.9
2019-05-02T04:09:02.007Z,944.9
2019-05-02T04:12:22.752Z,945
2019-05-02T04:15:37.510Z,945
2019-05-02T04:18:58.640Z,945
2019-05-02T04:22:12.790Z,945.1
2019-05-02T04:25:19.211Z,945.1
2019-05-02T04:28:25.332Z,945
2019-05-02T04:31:35.062Z,945.1
2019-05-02T04:33:15.545Z,945.2
2019-05-02T04:34:58.732Z,945.2
2019-05-02T04:38:43.814Z,945.2
2019-05-02T04:42:21.948Z,945.3
2019-05-02T04:46:00.098Z,945.2
2019-05-02T04:49:08.923Z,945.2
2019-05-02T04:52:21.815Z,945.2
2019-05-02T04:55:34.410Z,945.2
2019-05-02T04:58:43.167Z,945.2
2019-05-02T05:02:01.981Z,945.3
2019-05-02T05:05:09.444Z,945.3
2019-05-02T05:08:32.143Z,945.3
2019-05-02T05:11:41.328Z,945.3
2019-05-02T05:14:48.621Z,945.3
2019-05-02T05:18:14.889Z,945.3
2019-05-02T05:21:29.317Z,945.3
2019-05-02T05:24:43.083Z,945.4
2019-05-02T05:28:05.800Z,945.4
2019-05-02T05:31:28.882Z,945.4
2019-05-02T05:34:35.119Z,945.4
2019-05-02T05:37:53.160Z,945.4
2019-05-02T05:41:16.530Z,945.4
2019-05-02T05:44:33.882Z,945.4
2019-05-02T05:47:42.118Z,945.4
2019-05-02T05:50:48.971Z,945.4
2019-05-02T05:54:03.893Z,945.4
2019-05-02T05:57:21.638Z,945.4
2019-05-02T06:00:29.074Z,945.4
2019-05-02T06:03:47.340Z,945.4
2019-05-02T06:07:03.304Z,945.4
2019-05-02T06:10:11.602Z,945.5
2019-05-02T06:13:17.758Z,945.5
2019-05-02T06:16:23.918Z,945.5
2019-05-02T06:19:30.047Z,945.5
2019-05-02T06:22:36.211Z,945.5
2019-05-02T06:25:43.985Z,945.5
2019-05-02T06:28:50.110Z,945.5
2019-05-02T06:31:56.254Z,945.5
2019-05-02T06:35:02.403Z,945.4
2019-05-02T06:38:08.566Z,945.5
2019-05-02T06:41:22.284Z,945.6
2019-05-02T06:44:28.370Z,945.6
2019-05-02T06:47:43.600Z,945.6
2019-05-02T06:50:49.862Z,945.6
2019-05-02T06:53:56.016Z,945.6
2019-05-02T06:57:02.328Z,945.6
2019-05-02T07:00:08.453Z,945.6
2019-05-02T07:03:15.014Z,945.7
2019-05-02T07:06:21.731Z,945.7
2019-05-02T07:09:42.589Z,945.7
2019-05-02T07:13:11.416Z,945.7
2019-05-02T07:16:39.701Z,945.6
2019-05-02T07:19:45.746Z,945.6
2019-05-02T07:22:51.911Z,945.6
2019-05-02T07:26:01.293Z,945.7
2019-05-02T07:29:10.327Z,945.7
2019-05-02T07:32:26.760Z,945.7
2019-05-02T07:35:32.856Z,945.7
2019-05-02T07:38:39.015Z,945.7
2019-05-02T07:41:45.191Z,945.7
2019-05-02T07:44:51.386Z,945.7
2019-05-02T07:47:57.599Z,945.7
2019-05-02T07:51:06.998Z,945.7
2019-05-02T07:54:13.158Z,945.7
2019-05-02T07:57:32.340Z,945.8
2019-05-02T08:00:39.621Z,945.7
2019-05-02T08:03:45.817Z,945.7
2019-05-02T08:06:51.924Z,945.7
2019-05-02T08:09:58.070Z,945.8
2019-05-02T08:13:04.276Z,945.8
2019-05-02T08:16:10.406Z,945.7
2019-05-02T08:19:16.635Z,945.7
2019-05-02T08:22:22.823Z,945.8
2019-05-02T08:25:28.967Z,945.9
2019-05-02T08:28:37.544Z,945.8
2019-05-02T08:31:43.680Z,945.8
2019-05-02T08:34:54.494Z,945.8
2019-05-02T08:38:00.631Z,945.9
2019-05-02T08:41:06.778Z,945.9
2019-05-02T08:44:18.781Z,945.8
2019-05-02T08:47:31.130Z,945.8
2019-05-02T08:50:37.558Z,945.8
2019-05-02T08:53:43.704Z,945.8
2019-05-02T08:57:00.608Z,945.9
2019-05-02T09:00:06.723Z,945.9
2019-05-02T09:03:12.920Z,945.8
2019-05-02T09:06:24.837Z,945.8
2019-05-02T09:09:30.911Z,945.8
2019-05-02T09:12:45.510Z,945.7
2019-05-02T09:15:55.218Z,945.7
2019-05-02T09:19:03.935Z,945.7
2019-05-02T09:22:17.397Z,945.8
2019-05-02T09:25:23.582Z,945.7
2019-05-02T09:28:29.720Z,945.7
2019-05-02T09:31:46.652Z,945.7
2019-05-02T09:35:01.924Z,945.7
2019-05-02T09:38:17.614Z,945.7
2019-05-02T09:41:36.293Z,945.8
2019-05-02T09:44:47.880Z,945.7
2019-05-02T09:48:08.877Z,945.7
2019-05-02T09:51:32.294Z,945.7
2019-05-02T09:54:46.705Z,945.7
2019-05-02T09:57:53.260Z,945.7
2019-05-02T10:00:59.426Z,945.6
2019-05-02T10:04:07.941Z,945.7
2019-05-02T10:07:16.870Z,945.7
2019-05-02T10:10:23.073Z,945.7
2019-05-02T10:13:29.264Z,945.6
2019-05-02T10:16:37.429Z,945.7
2019-05-02T10:19:57.390Z,945.6
2019-05-02T10:23:05.609Z,945.6
2019-05-02T10:26:26.177Z,945.7
2019-05-02T10:29:34.219Z,945.7
2019-05-02T10:32:42.587Z,945.8
2019-05-02T10:36:03.850Z,945.8
2019-05-02T10:39:15.144Z,945.7
2019-05-02T10:42:24.485Z,945.6
2019-05-02T10:45:33.200Z,945.7
2019-05-02T10:48:39.310Z,945.5
2019-05-02T10:51:53.900Z,945.5
2019-05-02T10:55:02.418Z,945.4
2019-05-02T10:58:08.969Z,945.5
2019-05-02T11:01:17.349Z,945.5
2019-05-02T11:04:32.252Z,945.4
2019-05-02T11:07:38.621Z,945.4
2019-05-02T11:10:47.035Z,945.5
2019-05-02T11:14:05.571Z,945.5
2019-05-02T11:17:18.677Z,945.4
2019-05-02T11:20:26.921Z,945.5
2019-05-02T11:23:34.091Z,945.6
2019-05-02T11:26:43.586Z,945.5
2019-05-02T11:29:58.224Z,945.5
2019-05-02T11:33:08.754Z,945.5
2019-05-02T11:36:18.397Z,945.5
2019-05-02T11:39:51.284Z,945.4
2019-05-02T11:43:14.481Z,945.3
2019-05-02T11:46:23.274Z,945.3
2019-05-02T11:49:29.488Z,945.3
2019-05-02T11:52:38.777Z,945.3
2019-05-02T11:55:47.126Z,945.2
2019-05-02T11:59:20.655Z,945.2
2019-05-02T12:02:37.304Z,945.2
2019-05-02T12:05:46.048Z,945.1
2019-05-02T12:08:53.815Z,945.1
2019-05-02T12:12:00.010Z,945
2019-05-02T12:15:08.153Z,945.1
2019-05-02T12:18:16.318Z,945.1
2019-05-02T12:21:27.636Z,945
2019-05-02T12:24:45.257Z,944.9
2019-05-02T12:27:54.275Z,944.9
2019-05-02T12:31:02.210Z,944.9
2019-05-02T12:34:22.296Z,944.9
2019-05-02T12:37:28.482Z,944.8
2019-05-02T12:40:34.713Z,944.7
2019-05-02T12:43:42.723Z,944.7
2019-05-02T12:46:48.882Z,944.8
2019-05-02T12:49:57.307Z,944.7
2019-05-02T12:53:04.354Z,944.7
2019-05-02T12:56:12.518Z,944.8
2019-05-02T12:59:18.661Z,944.6
2019-05-02T13:02:26.912Z,944.7
2019-05-02T13:05:33.157Z,944.7
2019-05-02T13:08:39.400Z,944.7
2019-05-02T13:11:52.043Z,944.6
2019-05-02T13:14:58.707Z,944.7
2019-05-02T13:18:07.771Z,944.7
2019-05-02T13:21:23.349Z,944.6
2019-05-02T13:24:57.442Z,944.6
2019-05-02T13:28:03.600Z,944.6
2019-05-02T13:31:12.928Z,944.6
2019-05-02T13:34:19.044Z,944.6
2019-05-02T13:37:27.058Z,944.5
2019-05-02T13:40:33.485Z,944.5
2019-05-02T13:43:39.613Z,944.5
2019-05-02T13:46:47.540Z,944.5
2019-05-02T13:50:03.682Z,944.5
2019-05-02T13:53:12.694Z,944.3
2019-05-02T13:56:18.846Z,944.4
2019-05-02T13:59:27.565Z,944.4
2019-05-02T14:02:33.771Z,944.4
2019-05-02T14:05:54.129Z,944.4
2019-05-02T14:09:00.287Z,944.4
2019-05-02T14:12:25.707Z,944.4
2019-05-02T14:15:33.565Z,944.4
2019-05-02T14:18:42.066Z,944.4
2019-05-02T14:21:56.223Z,944.4
2019-05-02T14:25:03.166Z,944.5
2019-05-02T14:28:14.125Z,944.4
2019-05-02T14:31:22.274Z,944.4
2019-05-02T14:34:28.416Z,944.3
2019-05-02T14:37:35.606Z,944.3
2019-05-02T14:40:43.718Z,944.3
2019-05-02T14:43:52.505Z,944.2
2019-05-02T14:47:01.969Z,944.3
2019-05-02T14:50:26.455Z,944.4
2019-05-02T14:53:33.250Z,944.3
2019-05-02T14:56:48.488Z,944.4
2019-05-02T15:00:03.736Z,944.4
2019-05-02T15:03:09.815Z,944.4
2019-05-02T15:06:18.498Z,944.4
2019-05-02T15:09:28.143Z,944.4
2019-05-02T15:12:34.259Z,944.4
2019-05-02T15:15:44.421Z,944.5
2019-05-02T15:18:57.735Z,944.5
2019-05-02T15:22:05.662Z,944.5
2019-05-02T15:25:18.648Z,944.5
2019-05-02T15:28:39.877Z,944.5
2019-05-02T15:31:47.754Z,944.5
2019-05-02T15:34:56.693Z,944.6
2019-05-02T15:38:07.934Z,944.6
2019-05-02T15:41:16.611Z,944.6
2019-05-02T15:44:27.692Z,944.6
2019-05-02T15:47:45.250Z,944.6
2019-05-02T15:51:05.889Z,944.6
2019-05-02T15:54:23.253Z,944.6
2019-05-02T15:57:45.803Z,944.6
2019-05-02T16:01:05.286Z,944.7
2019-05-02T16:04:17.129Z,944.6
2019-05-02T16:07:33.177Z,944.6
2019-05-02T16:10:51.207Z,944.6
2019-05-02T16:13:59.287Z,944.7
2019-05-02T16:17:07.391Z,944.7
2019-05-02T16:20:14.706Z,944.6
2019-05-02T16:23:36.155Z,944.6
2019-05-02T16:26:47.718Z,944.6
2019-05-02T16:30:07.948Z,944.5
2019-05-02T16:33:21.838Z,944.6
2019-05-02T16:36:38.187Z,944.6
2019-05-02T16:39:51.824Z,944.7
2019-05-02T16:42:58.045Z,944.7
2019-05-02T16:46:15.386Z,944.7
2019-05-02T16:49:23.898Z,944.7
2019-05-02T16:52:30.163Z,944.8
2019-05-02T16:55:49.022Z,944.8
2019-05-02T16:58:55.624Z,944.8
2019-05-02T17:02:09.706Z,944.8
2019-05-02T17:05:17.718Z,944.8
2019-05-02T17:08:24.024Z,944.9
2019-05-02T17:11:36.586Z,944.9
2019-05-02T17:14:55.450Z,945
2019-05-02T17:18:17.980Z,945
2019-05-02T17:21:52.703Z,945
2019-05-02T17:25:06.683Z,945.1
2019-05-02T17:28:14.537Z,945.1
2019-05-02T17:31:23.799Z,945.2
2019-05-02T17:34:35.624Z,945.4
2019-05-02T17:37:52.634Z,945.4
2019-05-02T17:41:08.428Z,945.4
2019-05-02T17:44:24.798Z,945.4
2019-05-02T17:47:37.678Z,945.4
2019-05-02T17:50:43.867Z,945.4
2019-05-02T17:54:04.168Z,945.4
2019-05-02T17:57:12.431Z,945.4
2019-05-02T18:00:18.654Z,945.4
2019-05-02T18:03:35.921Z,945.5
2019-05-02T18:06:55.697Z,945.4
2019-05-02T18:10:22.901Z,945.5
2019-05-02T18:13:36.087Z,945.5
2019-05-02T18:16:51.762Z,945.6
2019-05-02T18:20:06.744Z,945.6
2019-05-02T18:23:13.510Z,945.7
2019-05-02T18:26:32.591Z,945.6
2019-05-02T18:29:46.354Z,945.7
2019-05-02T18:33:03.330Z,945.7
2019-05-02T18:36:17.204Z,945.8
2019-05-02T18:39:53.798Z,945.9
2019-05-02T18:43:06.191Z,945.9
2019-05-02T18:46:14.459Z,945.9
2019-05-02T18:49:24.463Z,946
2019-05-02T18:52:48.022Z,946
2019-05-02T18:56:03.606Z,946
2019-05-02T18:59:14.139Z,946.1
2019-05-02T19:02:36.321Z,946.1
2019-05-02T19:05:46.460Z,946.2
2019-05-02T19:09:06.322Z,946.1
2019-05-02T19:12:26.665Z,946.2
2019-05-02T19:15:45.048Z,946.1
2019-05-02T19:18:58.631Z,946.2
2019-05-02T19:22:18.137Z,946.2
2019-05-02T19:25:26.254Z,946.2
2019-05-02T19:28:39.163Z,946.3
2019-05-02T19:31:47.638Z,946.3
2019-05-02T19:35:06.975Z,946.3
2019-05-02T19:38:22.472Z,946.2
2019-05-02T19:41:33.296Z,946.2
2019-05-02T19:44:46.619Z,946.2
2019-05-02T19:47:58.955Z,946.3
2019-05-02T19:51:10.458Z,946.3
2019-05-02T19:54:31.653Z,946.3
2019-05-02T19:57:48.225Z,946.4
2019-05-02T20:00:56.046Z,946.4
2019-05-02T20:04:09.170Z,946.3
2019-05-02T20:07:17.249Z,946.4
2019-05-02T20:10:24.064Z,946.4
2019-05-02T20:13:33.430Z,946.4
2019-05-02T20:16:46.561Z,946.4
2019-05-02T20:20:03.297Z,946.5
2019-05-02T20:23:31.368Z,946.5
2019-05-02T20:26:52.256Z,946.5
2019-05-02T20:30:04.142Z,946.4
2019-05-02T20:33:10.281Z,946.4
2019-05-02T20:36:18.443Z,946.5
2019-05-02T20:39:24.753Z,946.4
2019-05-02T20:42:32.815Z,946.4
2019-05-02T20:45:41.547Z,946.4
2019-05-02T20:48:52.524Z,946.4
2019-05-02T20:51:58.797Z,946.5
2019-05-02T20:55:07.791Z,946.4
2019-05-02T20:58:14.058Z,946.4
2019-05-02T21:01:20.242Z,946.4
2019-05-02T21:04:26.692Z,946.4
2019-05-02T21:07:34.354Z,946.4
2019-05-02T21:10:42.917Z,946.4
2019-05-02T21:13:54.093Z,946.4
2019-05-02T21:17:02.023Z,946.4
2019-05-02T21:20:08.475Z,946.4
2019-05-02T21:23:17.021Z,946.4
2019-05-02T21:26:23.349Z,946.5
2019-05-02T21:29:29.617Z,946.5
2019-05-02T21:32:37.848Z,946.6
2019-05-02T21:35:44.083Z,946.5
2019-05-02T21:38:52.766Z,946.6
2019-05-02T21:41:59.006Z,946.6
2019-05-02T21:45:10.260Z,946.7
2019-05-02T21:48:18.626Z,946.7
2019-05-02T21:51:26.995Z,946.7
2019-05-02T21:54:33.278Z,946.8
2019-05-02T21:57:39.663Z,946.8
2019-05-02T22:00:45.793Z,946.8
2019-05-02T22:03:52.058Z,946.8
2019-05-02T22:06:58.359Z,946.8
2019-05-02T22:10:04.499Z,946.8
2019-05-02T22:13:10.709Z,946.8
2019-05-02T22:16:17.077Z,946.7
2019-05-02T22:19:23.219Z,946.8
2019-05-02T22:22:29.458Z,946.8
2019-05-02T22:25:41.847Z,946.9
2019-05-02T22:28:48.239Z,946.9
2019-05-02T22:31:57.981Z,946.8
2019-05-02T22:35:04.296Z,946.8
2019-05-02T22:38:13.090Z,946.8
2019-05-02T22:41:19.584Z,946.8
2019-05-02T22:44:27.709Z,946.8
2019-05-02T22:47:33.939Z,946.8
2019-05-02T22:50:41.774Z,946.8
2019-05-02T22:53:48.004Z,946.8
2019-05-02T22:56:55.596Z,946.9
2019-05-02T23:00:03.198Z,946.9
2019-05-02T23:03:09.468Z,946.9
2019-05-02T23:06:17.449Z,946.8
2019-05-02T23:09:23.634Z,946.7
2019-05-02T23:12:31.564Z,946.8
2019-05-02T23:15:37.975Z,946.7
2019-05-02T23:18:44.174Z,946.7
2019-05-02T23:21:52.437Z,946.7
2019-05-02T23:24:58.685Z,946.7
2019-05-02T23:28:07.308Z,946.7
2019-05-02T23:31:15.289Z,946.7
2019-05-02T23:34:24.629Z,946.7
2019-05-02T23:37:32.601Z,946.7
2019-05-02T23:40:38.852Z,946.7
2019-05-02T23:43:47.014Z,946.7
2019-05-02T23:46:53.292Z,946.7
2019-05-02T23:49:59.448Z,946.7
2019-05-02T23:53:05.845Z,946.7
2019-05-02T23:56:14.338Z,946.7
2019-05-02T23:59:22.320Z,946.6
